createdAt,value
2019-03-13T00:00:41.938Z,52.17
2019-03-13T00:03:11.090Z,52.31
2019-03-13T00:05:39.923Z,52.83
2019-03-13T00:08:08.720Z,52.54
2019-03-13T00:10:37.266Z,52.88
2019-03-13T00:13:06.034Z,52.91
2019-03-13T00:15:34.659Z,52.60
2019-03-13T00:18:03.253Z,52.73
2019-03-13T00:20:31.785Z,52.61
2019-03-13T00:23:00.292Z,52.00
2019-03-13T00:25:28.889Z,51.77
2019-03-13T00:27:57.470Z,51.46
2019-03-13T00:30:26.160Z,51.79
2019-03-13T00:32:54.700Z,52.80
2019-03-13T00:35:23.351Z,52.31
2019-03-13T00:37:51.946Z,51.12
2019-03-13T00:40:20.454Z,51.15
2019-03-13T00:42:48.994Z,51.69
2019-03-13T00:45:17.515Z,51.65
2019-03-13T00:47:46.329Z,50.88
2019-03-13T00:50:26.949Z,50.67
2019-03-13T00:52:55.470Z,51.50
2019-03-13T00:55:24.015Z,51.17
2019-03-13T00:57:52.612Z,51.03
2019-03-13T01:00:39.451Z,51.80
2019-03-13T01:03:09.671Z,51.45
2019-03-13T01:05:56.527Z,52.04
2019-03-13T01:08:25.050Z,51.11
2019-03-13T01:10:53.663Z,51.27
2019-03-13T01:13:22.328Z,51.30
2019-03-13T01:15:50.850Z,51.31
2019-03-13T01:18:19.379Z,51.41
2019-03-13T01:20:47.921Z,51.00
2019-03-13T01:23:16.432Z,50.70
2019-03-13T01:25:45.043Z,50.95
2019-03-13T01:28:13.720Z,50.46
2019-03-13T01:30:46.708Z,50.67
2019-03-13T01:33:16.873Z,50.32
2019-03-13T01:35:47.032Z,50.26
2019-03-13T01:38:15.627Z,50.05
2019-03-13T01:40:44.201Z,50.13
2019-03-13T01:43:12.810Z,50.09
2019-03-13T01:45:41.474Z,50.33
2019-03-13T01:48:10.053Z,50.09
2019-03-13T01:50:38.557Z,49.93
2019-03-13T01:53:07.067Z,49.75
2019-03-13T01:55:35.678Z,49.12
2019-03-13T01:58:04.406Z,48.78
2019-03-13T02:00:33.347Z,49.44
2019-03-13T02:03:01.960Z,49.30
2019-03-13T02:05:30.470Z,48.96
2019-03-13T02:07:59.083Z,48.61
2019-03-13T02:10:27.593Z,48.65
2019-03-13T02:12:56.130Z,48.66
2019-03-13T02:15:24.713Z,48.27
2019-03-13T02:17:53.229Z,48.52
2019-03-13T02:20:21.741Z,47.38
2019-03-13T02:22:50.351Z,47.86
2019-03-13T02:25:19.098Z,47.71
2019-03-13T02:27:47.679Z,47.77
2019-03-13T02:30:21.548Z,48.13
2019-03-13T02:32:50.277Z,48.04
2019-03-13T02:35:18.896Z,47.82
2019-03-13T02:37:47.411Z,47.66
2019-03-13T02:40:16.591Z,47.25
2019-03-13T02:42:45.114Z,47.32
2019-03-13T02:45:15.176Z,46.65
2019-03-13T02:47:43.701Z,46.88
2019-03-13T02:50:16.606Z,47.20
2019-03-13T02:52:45.180Z,47.36
2019-03-13T02:55:13.861Z,47.02
2019-03-13T02:57:42.441Z,47.38
2019-03-13T03:00:15.374Z,46.38
2019-03-13T03:02:45.889Z,47.16
2019-03-13T03:05:14.540Z,47.28
2019-03-13T03:07:43.046Z,47.21
2019-03-13T03:10:13.010Z,46.66
2019-03-13T03:12:41.681Z,46.85
2019-03-13T03:15:18.093Z,46.42
2019-03-13T03:17:46.677Z,46.41
2019-03-13T03:20:17.726Z,47.70
2019-03-13T03:22:46.347Z,47.49
2019-03-13T03:25:16.413Z,47.11
2019-03-13T03:27:44.987Z,47.14
2019-03-13T03:30:19.024Z,48.16
2019-03-13T03:32:47.546Z,48.98
2019-03-13T03:35:16.238Z,49.07
2019-03-13T03:37:44.834Z,49.62
2019-03-13T03:40:21.338Z,50.10
2019-03-13T03:42:46.429Z,50.41
2019-03-13T03:45:15.089Z,50.64
2019-03-13T03:47:43.676Z,50.02
2019-03-13T03:50:13.804Z,49.27
2019-03-13T03:52:42.266Z,49.80
2019-03-13T03:55:12.106Z,50.63
2019-03-13T03:57:40.627Z,50.16
2019-03-13T04:00:15.032Z,49.05
2019-03-13T04:02:43.483Z,48.66
2019-03-13T04:05:12.193Z,46.66
2019-03-13T04:07:40.729Z,47.03
2019-03-13T04:10:13.459Z,47.18
2019-03-13T04:12:41.988Z,47.60
2019-03-13T04:15:12.051Z,47.90
2019-03-13T04:17:40.610Z,47.56
2019-03-13T04:20:14.187Z,47.66
2019-03-13T04:22:42.782Z,48.11
2019-03-13T04:25:23.489Z,47.08
2019-03-13T04:27:52.021Z,47.82
2019-03-13T04:30:20.477Z,47.74
2019-03-13T04:32:48.965Z,46.50
2019-03-13T04:35:18.195Z,46.45
2019-03-13T04:37:46.677Z,46.50
2019-03-13T04:40:15.712Z,46.62
2019-03-13T04:42:44.262Z,46.20
2019-03-13T04:45:13.278Z,45.99
2019-03-13T04:47:41.758Z,45.39
2019-03-13T04:50:46.846Z,45.13
2019-03-13T04:53:15.328Z,44.98
2019-03-13T04:55:43.821Z,45.43
2019-03-13T04:58:12.321Z,45.15
2019-03-13T05:00:40.792Z,44.58
2019-03-13T05:03:09.454Z,45.75
2019-03-13T05:05:44.993Z,45.28
2019-03-13T05:08:19.076Z,44.59
2019-03-13T05:10:47.543Z,43.36
2019-03-13T05:13:16.002Z,43.18
2019-03-13T05:15:44.503Z,43.37
2019-03-13T05:18:13.084Z,43.43
2019-03-13T05:20:41.560Z,43.21
2019-03-13T05:23:10.057Z,42.56
2019-03-13T05:25:38.523Z,41.82
2019-03-13T05:28:07.132Z,41.83
2019-03-13T05:30:35.583Z,40.75
2019-03-13T05:33:04.038Z,40.44
2019-03-13T05:35:32.529Z,40.96
2019-03-13T05:38:00.991Z,41.25
2019-03-13T05:40:29.477Z,41.83
2019-03-13T05:42:57.993Z,42.09
2019-03-13T05:45:26.458Z,41.87
2019-03-13T05:47:54.973Z,42.54
2019-03-13T05:50:23.430Z,42.51
2019-03-13T05:52:51.899Z,42.36
2019-03-13T05:55:20.386Z,42.94
2019-03-13T05:57:48.850Z,42.82
2019-03-13T06:00:18.967Z,42.15
2019-03-13T06:02:48.117Z,41.82
2019-03-13T06:05:16.659Z,42.00
2019-03-13T06:07:45.122Z,41.83
2019-03-13T06:10:14.927Z,42.55
2019-03-13T06:12:43.422Z,42.75
2019-03-13T06:15:13.627Z,42.43
2019-03-13T06:17:42.194Z,42.41
2019-03-13T06:20:13.498Z,42.43
2019-03-13T06:22:41.995Z,42.36
2019-03-13T06:25:12.463Z,41.92
2019-03-13T06:27:40.944Z,41.36
2019-03-13T06:30:18.227Z,41.89
2019-03-13T06:32:46.773Z,41.93
2019-03-13T06:35:15.505Z,44.00
2019-03-13T06:37:44.151Z,45.03
2019-03-13T06:40:14.355Z,45.13
2019-03-13T06:42:42.926Z,44.43
2019-03-13T06:45:13.426Z,44.47
2019-03-13T06:47:42.017Z,43.58
2019-03-13T06:50:13.462Z,43.45
2019-03-13T06:52:41.994Z,43.73
2019-03-13T06:55:10.859Z,44.36
2019-03-13T06:57:39.329Z,45.54
2019-03-13T07:00:39.423Z,46.08
2019-03-13T07:03:27.884Z,47.21
2019-03-13T07:05:58.002Z,47.35
2019-03-13T07:08:39.872Z,47.49
2019-03-13T07:11:22.236Z,47.52
2019-03-13T07:14:08.432Z,48.13
2019-03-13T07:16:54.787Z,48.39
2019-03-13T07:19:24.897Z,48.00
2019-03-13T07:21:57.955Z,48.10
2019-03-13T07:24:31.040Z,48.48
2019-03-13T07:27:01.175Z,48.80
2019-03-13T07:29:43.095Z,48.96
2019-03-13T07:32:13.208Z,48.25
2019-03-13T07:34:46.032Z,48.42
2019-03-13T07:37:18.590Z,48.10
2019-03-13T07:40:05.095Z,48.20
2019-03-13T07:42:35.195Z,48.24
2019-03-13T07:45:06.548Z,47.93
2019-03-13T07:47:45.923Z,48.53
2019-03-13T07:50:19.282Z,47.77
2019-03-13T07:52:55.099Z,48.21
2019-03-13T07:55:40.188Z,47.66
2019-03-13T07:58:10.335Z,47.71
2019-03-13T08:00:40.464Z,48.07
2019-03-13T08:03:19.576Z,48.08
2019-03-13T08:05:49.685Z,47.90
2019-03-13T08:08:19.825Z,48.09
2019-03-13T08:10:52.356Z,48.03
2019-03-13T08:13:40.560Z,47.72
2019-03-13T08:16:25.688Z,47.34
2019-03-13T08:19:01.699Z,47.95
2019-03-13T08:21:47.692Z,48.01
2019-03-13T08:24:35.904Z,48.25
2019-03-13T08:27:24.446Z,47.83
2019-03-13T08:30:12.938Z,48.22
2019-03-13T08:32:45.873Z,48.45
2019-03-13T08:35:24.655Z,49.30
2019-03-13T08:37:54.762Z,48.75
2019-03-13T08:40:36.385Z,49.29
2019-03-13T08:43:22.694Z,48.87
2019-03-13T08:46:08.994Z,49.68
2019-03-13T08:48:54.509Z,49.91
2019-03-13T08:51:36.387Z,49.82
2019-03-13T08:54:23.252Z,49.95
2019-03-13T08:57:08.428Z,50.37
2019-03-13T08:59:54.825Z,51.48
2019-03-13T09:02:37.438Z,52.82
2019-03-13T09:05:08.784Z,54.41
2019-03-13T09:07:38.893Z,55.23
2019-03-13T09:10:14.689Z,56.26
2019-03-13T09:12:44.794Z,57.21
2019-03-13T09:15:27.199Z,58.69
2019-03-13T09:18:02.882Z,60.51
2019-03-13T09:20:35.723Z,60.76
2019-03-13T09:23:14.564Z,61.83
2019-03-13T09:25:56.658Z,62.90
2019-03-13T09:28:29.432Z,63.11
2019-03-13T09:31:02.006Z,63.79
2019-03-13T09:33:34.814Z,64.16
2019-03-13T09:36:04.946Z,64.06
2019-03-13T09:38:38.209Z,64.15
2019-03-13T09:41:13.015Z,64.31
2019-03-13T09:43:45.800Z,64.87
2019-03-13T09:46:21.709Z,65.50
2019-03-13T09:48:51.815Z,65.51
2019-03-13T09:51:21.960Z,65.13
2019-03-13T09:53:57.557Z,65.61
2019-03-13T09:56:27.658Z,65.37
2019-03-13T09:59:16.075Z,65.19
2019-03-13T10:01:48.873Z,65.04
2019-03-13T10:04:35.483Z,65.50
2019-03-13T10:07:11.320Z,65.68
2019-03-13T10:09:41.462Z,64.09
2019-03-13T10:12:26.692Z,63.24
2019-03-13T10:15:13.029Z,62.32
2019-03-13T10:17:59.424Z,61.94
2019-03-13T10:20:29.537Z,61.23
2019-03-13T10:23:02.619Z,61.00
2019-03-13T10:25:42.049Z,61.75
2019-03-13T10:28:18.156Z,61.55
2019-03-13T10:31:04.663Z,62.12
2019-03-13T10:33:34.787Z,59.56
2019-03-13T10:36:04.893Z,57.83
2019-03-13T10:38:41.090Z,57.70
2019-03-13T10:41:27.140Z,56.48
2019-03-13T10:43:57.273Z,57.17
2019-03-13T10:46:45.153Z,57.65
2019-03-13T10:49:15.322Z,57.13
2019-03-13T10:51:45.457Z,57.49
2019-03-13T10:54:24.722Z,58.12
2019-03-13T10:57:03.729Z,56.25
2019-03-13T10:59:36.506Z,54.51
2019-03-13T11:02:10.656Z,53.05
2019-03-13T11:04:40.938Z,51.58
2019-03-13T11:07:11.046Z,52.71
2019-03-13T11:09:41.159Z,52.46
2019-03-13T11:12:20.020Z,53.87
2019-03-13T11:14:50.155Z,53.13
2019-03-13T11:17:26.193Z,52.60
2019-03-13T11:20:11.166Z,52.19
2019-03-13T11:22:41.304Z,51.46
2019-03-13T11:25:11.545Z,52.40
2019-03-13T11:27:44.358Z,51.28
2019-03-13T11:30:32.759Z,52.23
2019-03-13T11:33:05.868Z,52.05
2019-03-13T11:35:35.974Z,50.99
2019-03-13T11:38:06.349Z,49.32
2019-03-13T11:40:44.994Z,49.22
2019-03-13T11:43:18.221Z,49.53
2019-03-13T11:45:54.099Z,50.11
2019-03-13T11:48:38.943Z,49.27
2019-03-13T11:51:15.471Z,48.55
2019-03-13T11:54:34.144Z,48.81
2019-03-13T12:02:42.749Z,46.60
2019-03-13T12:05:14.008Z,47.13
2019-03-13T12:07:49.614Z,45.09
2019-03-13T12:10:19.791Z,45.55
2019-03-13T12:12:55.662Z,44.70
2019-03-13T12:15:25.839Z,44.74
2019-03-13T12:17:56.040Z,44.09
2019-03-13T12:20:26.139Z,43.81
2019-03-13T12:22:58.941Z,41.59
2019-03-13T12:25:29.039Z,42.85
2019-03-13T12:28:11.019Z,43.74
2019-03-13T12:30:46.908Z,42.28
2019-03-13T12:33:19.819Z,41.96
2019-03-13T12:35:52.393Z,41.62
2019-03-13T12:38:28.406Z,40.93
2019-03-13T12:40:58.679Z,41.21
2019-03-13T12:43:44.911Z,42.40
2019-03-13T12:46:31.382Z,42.16
2019-03-13T12:49:01.500Z,41.93
2019-03-13T12:51:37.085Z,42.50
2019-03-13T12:54:07.367Z,40.60
2019-03-13T12:56:45.956Z,40.56
2019-03-13T12:59:16.128Z,40.27
2019-03-13T13:01:52.231Z,41.25
2019-03-13T13:04:25.576Z,40.37
2019-03-13T13:07:04.357Z,40.85
2019-03-13T13:09:46.820Z,42.83
2019-03-13T13:12:19.659Z,43.58
2019-03-13T13:14:55.639Z,43.56
2019-03-13T13:17:31.852Z,42.90
2019-03-13T13:20:00.403Z,41.13
2019-03-13T13:22:28.936Z,40.03
2019-03-13T13:24:57.539Z,41.95
2019-03-13T13:27:26.034Z,39.61
2019-03-13T13:29:54.720Z,40.01
2019-03-13T13:32:24.647Z,40.43
2019-03-13T13:34:53.097Z,39.58
2019-03-13T13:37:21.657Z,39.20
2019-03-13T13:39:50.286Z,38.22
2019-03-13T13:42:18.901Z,38.85
2019-03-13T13:44:47.424Z,37.88
2019-03-13T13:47:15.887Z,37.43
2019-03-13T13:49:58.884Z,37.65
2019-03-13T13:52:16.884Z,37.54
2019-03-13T13:54:45.389Z,39.70
2019-03-13T13:57:13.991Z,38.28
2019-03-13T13:59:42.554Z,38.35
2019-03-13T14:02:11.049Z,38.41
2019-03-13T14:04:39.513Z,38.88
2019-03-13T14:07:08.024Z,38.97
2019-03-13T14:09:36.567Z,38.53
2019-03-13T14:12:05.276Z,38.01
2019-03-13T14:14:33.755Z,37.27
2019-03-13T14:17:02.224Z,37.04
2019-03-13T14:19:30.703Z,35.60
2019-03-13T14:21:59.158Z,35.62
2019-03-13T14:24:27.635Z,35.51
2019-03-13T14:26:56.115Z,36.08
2019-03-13T14:29:24.590Z,36.85
2019-03-13T14:31:53.364Z,37.94
2019-03-13T14:34:21.916Z,37.38
2019-03-13T14:36:50.435Z,37.32
2019-03-13T14:39:18.978Z,37.30
2019-03-13T14:41:47.589Z,42.23
2019-03-13T14:44:16.053Z,42.93
2019-03-13T14:46:44.660Z,43.64
2019-03-13T14:49:13.195Z,43.77
2019-03-13T14:51:41.710Z,44.21
2019-03-13T14:54:11.763Z,44.92
2019-03-13T14:56:40.263Z,44.22
2019-03-13T14:59:10.033Z,43.64
2019-03-13T15:01:38.494Z,43.95
2019-03-13T15:04:08.069Z,44.07
2019-03-13T15:06:38.750Z,44.81
2019-03-13T15:09:06.869Z,45.52
2019-03-13T15:11:35.348Z,46.32
2019-03-13T15:14:04.613Z,45.38
2019-03-13T15:16:33.115Z,44.93
2019-03-13T15:19:01.603Z,44.49
2019-03-13T15:21:30.060Z,44.50
2019-03-13T15:23:58.513Z,44.55
2019-03-13T15:26:27.085Z,45.53
2019-03-13T15:28:55.553Z,44.63
2019-03-13T15:31:24.059Z,43.71
2019-03-13T15:33:52.535Z,43.74
2019-03-13T15:36:21.020Z,43.27
2019-03-13T15:38:49.513Z,44.00
2019-03-13T15:41:17.999Z,44.95
2019-03-13T15:43:47.950Z,43.80
2019-03-13T15:46:16.453Z,43.79
2019-03-13T15:48:47.654Z,44.08
2019-03-13T15:51:16.132Z,42.17
2019-03-13T15:53:44.664Z,41.37
2019-03-13T15:56:13.177Z,41.35
2019-03-13T15:58:41.650Z,41.65
2019-03-13T16:01:10.190Z,41.56
2019-03-13T16:03:38.667Z,41.37
2019-03-13T16:06:07.169Z,41.29
2019-03-13T16:08:35.633Z,41.90
2019-03-13T16:11:04.401Z,42.54
2019-03-13T16:13:32.854Z,43.36
2019-03-13T16:16:01.668Z,42.70
2019-03-13T16:18:30.132Z,43.02
2019-03-13T16:20:58.613Z,43.03
2019-03-13T16:23:27.131Z,42.74
2019-03-13T16:25:55.869Z,43.01
2019-03-13T16:28:24.469Z,43.31
2019-03-13T16:30:54.567Z,43.82
2019-03-13T16:33:23.127Z,43.90
2019-03-13T16:35:51.606Z,43.76
2019-03-13T16:38:20.079Z,42.96
2019-03-13T16:40:48.623Z,43.67
2019-03-13T16:43:18.378Z,44.21
2019-03-13T16:45:46.928Z,43.31
2019-03-13T16:48:15.474Z,43.37
2019-03-13T16:50:46.404Z,43.48
2019-03-13T16:53:14.907Z,43.05
2019-03-13T16:55:43.378Z,44.18
2019-03-13T16:58:11.879Z,45.12
2019-03-13T17:00:40.533Z,46.35
2019-03-13T17:03:09.071Z,46.53
2019-03-13T17:05:37.582Z,47.44
2019-03-13T17:08:07.472Z,47.48
2019-03-13T17:10:35.980Z,48.19
2019-03-13T17:13:05.683Z,47.87
2019-03-13T17:15:34.711Z,47.47
2019-03-13T17:18:05.178Z,47.60
2019-03-13T17:20:39.396Z,47.25
2019-03-13T17:23:07.906Z,46.76
2019-03-13T17:25:36.621Z,47.20
2019-03-13T17:28:06.046Z,48.14
2019-03-13T17:30:34.714Z,47.58
2019-03-13T17:33:03.169Z,48.56
2019-03-13T17:35:31.815Z,49.22
2019-03-13T17:38:00.356Z,50.01
2019-03-13T17:40:30.677Z,50.93
2019-03-13T17:42:59.170Z,52.16
2019-03-13T17:45:27.809Z,51.62
2019-03-13T17:47:56.363Z,52.78
2019-03-13T17:50:25.743Z,53.17
2019-03-13T17:52:54.377Z,53.09
2019-03-13T17:55:24.264Z,53.61
2019-03-13T17:57:52.962Z,54.21
2019-03-13T18:00:31.844Z,53.72
2019-03-13T18:03:00.472Z,53.52
2019-03-13T18:05:29.004Z,53.73
2019-03-13T18:07:57.502Z,54.78
2019-03-13T18:10:25.983Z,56.98
2019-03-13T18:12:54.545Z,58.21
2019-03-13T18:15:23.113Z,57.80
2019-03-13T18:17:51.711Z,58.63
2019-03-13T18:20:24.817Z,59.53
2019-03-13T18:22:53.512Z,59.70
2019-03-13T18:25:22.184Z,61.05
2019-03-13T18:27:50.831Z,60.70
2019-03-13T18:30:33.625Z,60.52
2019-03-13T18:33:02.260Z,62.10
2019-03-13T18:35:30.976Z,61.95
2019-03-13T18:37:59.611Z,62.41
2019-03-13T18:40:28.151Z,62.64
2019-03-13T18:42:56.785Z,63.42
2019-03-13T18:45:32.430Z,64.45
2019-03-13T18:48:00.981Z,63.32
2019-03-13T18:50:30.105Z,62.19
2019-03-13T18:52:58.651Z,62.30
2019-03-13T18:55:37.022Z,62.88
2019-03-13T18:58:06.414Z,61.55
2019-03-13T19:00:36.020Z,59.96
2019-03-13T19:03:06.843Z,58.61
2019-03-13T19:05:36.787Z,59.96
2019-03-13T19:08:06.935Z,59.30
2019-03-13T19:10:35.685Z,59.73
2019-03-13T19:13:06.255Z,60.28
2019-03-13T19:15:34.974Z,59.87
2019-03-13T19:18:03.586Z,60.20
2019-03-13T19:20:32.196Z,60.41
2019-03-13T19:23:01.132Z,59.34
2019-03-13T19:25:29.937Z,58.58
2019-03-13T19:27:58.664Z,58.16
2019-03-13T19:30:31.827Z,59.61
2019-03-13T19:33:01.174Z,60.05
2019-03-13T19:35:29.843Z,61.64
2019-03-13T19:38:01.169Z,62.18
2019-03-13T19:40:29.880Z,61.08
2019-03-13T19:42:58.377Z,59.62
2019-03-13T19:45:41.550Z,60.26
2019-03-13T19:48:10.416Z,60.41
2019-03-13T19:50:39.044Z,61.17
2019-03-13T19:53:07.887Z,60.77
2019-03-13T19:55:36.554Z,61.16
2019-03-13T19:58:06.069Z,62.76
2019-03-13T20:00:34.681Z,63.69
2019-03-13T20:03:06.230Z,63.87
2019-03-13T20:05:44.681Z,63.02
2019-03-13T20:08:05.377Z,62.25
2019-03-13T20:10:34.212Z,61.16
2019-03-13T20:13:02.899Z,61.74
2019-03-13T20:15:32.998Z,61.54
2019-03-13T20:18:01.687Z,61.78
2019-03-13T20:20:30.392Z,61.02
2019-03-13T20:23:04.635Z,61.52
2019-03-13T20:25:33.434Z,62.20
2019-03-13T20:28:02.121Z,61.93
2019-03-13T20:30:30.755Z,64.83
2019-03-13T20:32:59.457Z,65.34
2019-03-13T20:35:28.134Z,66.04
2019-03-13T20:37:56.873Z,66.29
2019-03-13T20:40:26.558Z,66.13
2019-03-13T20:42:55.287Z,66.66
2019-03-13T20:45:26.904Z,66.70
2019-03-13T20:47:55.743Z,66.02
2019-03-13T20:50:36.097Z,64.92
2019-03-13T20:52:54.853Z,63.78
2019-03-13T20:55:23.989Z,62.69
2019-03-13T20:57:52.564Z,61.35
2019-03-13T21:00:25.528Z,60.42
2019-03-13T21:02:55.140Z,60.85
2019-03-13T21:05:24.142Z,60.36
2019-03-13T21:07:53.153Z,59.85
2019-03-13T21:10:21.978Z,60.33
2019-03-13T21:12:50.638Z,59.88
2019-03-13T21:15:21.777Z,59.43
2019-03-13T21:17:50.391Z,60.11
2019-03-13T21:20:19.465Z,59.53
2019-03-13T21:22:47.939Z,59.29
2019-03-13T21:25:20.887Z,59.79
2019-03-13T21:27:49.537Z,60.55
2019-03-13T21:30:26.246Z,61.49
2019-03-13T21:32:54.800Z,62.70
2019-03-13T21:35:24.004Z,63.18
2019-03-13T21:37:52.683Z,62.72
2019-03-13T21:40:26.367Z,62.22
2019-03-13T21:42:55.488Z,61.71
2019-03-13T21:45:25.975Z,61.07
2019-03-13T21:47:54.583Z,61.54
2019-03-13T21:50:23.554Z,61.98
2019-03-13T21:52:52.361Z,62.78
2019-03-13T21:55:20.925Z,63.48
2019-03-13T21:57:51.935Z,63.46
2019-03-13T22:00:27.542Z,64.14
2019-03-13T22:02:56.469Z,64.99
2019-03-13T22:05:27.048Z,64.90
2019-03-13T22:07:56.199Z,65.50
2019-03-13T22:10:24.863Z,64.50
2019-03-13T22:12:53.414Z,64.38
2019-03-13T22:15:23.117Z,63.63
2019-03-13T22:17:51.762Z,63.48
2019-03-13T22:20:20.677Z,65.46
2019-03-13T22:22:49.326Z,65.95
2019-03-13T22:25:19.707Z,65.73
2019-03-13T22:27:48.445Z,66.49
2019-03-13T22:30:19.150Z,66.43
2019-03-13T22:32:47.831Z,65.26
2019-03-13T22:35:16.427Z,66.05
2019-03-13T22:37:44.977Z,66.79
2019-03-13T22:40:14.908Z,65.09
2019-03-13T22:42:43.386Z,64.87
2019-03-13T22:45:16.945Z,64.97
2019-03-13T22:47:45.489Z,65.64
2019-03-13T22:50:24.914Z,64.70
2019-03-13T22:52:53.521Z,64.47
2019-03-13T22:55:22.133Z,64.84
2019-03-13T22:57:50.590Z,64.31
2019-03-13T23:00:41.631Z,64.48
2019-03-13T23:03:10.837Z,64.51
2019-03-13T23:05:39.411Z,64.65
2019-03-13T23:08:07.949Z,64.08
2019-03-13T23:10:36.983Z,62.98
2019-03-13T23:13:05.611Z,63.96
2019-03-13T23:15:34.151Z,63.67
2019-03-13T23:18:02.652Z,63.94
2019-03-13T23:20:31.119Z,64.03
2019-03-13T23:22:59.584Z,63.24
2019-03-13T23:25:28.329Z,63.90
2019-03-13T23:27:56.804Z,63.84
2019-03-13T23:30:25.340Z,64.06
2019-03-13T23:32:53.838Z,63.04
2019-03-13T23:35:22.377Z,63.20
2019-03-13T23:37:50.857Z,63.46
2019-03-13T23:40:19.334Z,62.63
2019-03-13T23:42:47.795Z,63.32
2019-03-13T23:45:16.430Z,63.85
2019-03-13T23:47:44.896Z,63.25
2019-03-13T23:50:14.540Z,62.96
2019-03-13T23:52:43.023Z,61.83
2019-03-13T23:55:11.954Z,60.85
2019-03-13T23:57:40.418Z,62.07
